sensor_id;sensor_type;location;lat;lon;timestamp;pressure;altitude;pressure_sealevel;temperature
24740;BMP280;45234;48.148;17.128;2023-06-22T00:00:02;100332.69;;;22.98
24740;BMP280;45234;48.148;17.128;2023-06-22T00:02:38;100319.53;;;22.93
24740;BMP280;45234;48.148;17.128;2023-06-22T00:05:05;100307.41;;;22.81
24740;BMP280;45234;48.148;17.128;2023-06-22T00:07:32;100312.72;;;22.76
24740;BMP280;45234;48.148;17.128;2023-06-22T00:09:59;100324.13;;;22.72
24740;BMP280;45234;48.148;17.128;2023-06-22T00:12:26;100317.50;;;22.69
24740;BMP280;45234;48.148;17.128;2023-06-22T00:14:53;100324.41;;;22.65
24740;BMP280;45234;48.148;17.128;2023-06-22T00:17:20;100318.59;;;22.58
24740;BMP280;45234;48.148;17.128;2023-06-22T00:19:50;100312.25;;;22.54
24740;BMP280;45234;48.148;17.128;2023-06-22T00:22:23;100321.81;;;22.45
24740;BMP280;45234;48.148;17.128;2023-06-22T00:24:56;100326.56;;;22.43
24740;BMP280;45234;48.148;17.128;2023-06-22T00:27:23;100318.69;;;22.38
24740;BMP280;45234;48.148;17.128;2023-06-22T00:29:50;100329.50;;;22.36
24740;BMP280;45234;48.148;17.128;2023-06-22T00:32:17;100320.78;;;22.41
24740;BMP280;45234;48.148;17.128;2023-06-22T00:34:47;100318.94;;;22.41
24740;BMP280;45234;48.148;17.128;2023-06-22T00:37:14;100327.13;;;22.40
24740;BMP280;45234;48.148;17.128;2023-06-22T00:39:42;100331.63;;;22.34
24740;BMP280;45234;48.148;17.128;2023-06-22T00:42:11;100331.09;;;22.32
24740;BMP280;45234;48.148;17.128;2023-06-22T00:44:38;100332.44;;;22.30
24740;BMP280;45234;48.148;17.128;2023-06-22T00:47:05;100325.56;;;22.29
24740;BMP280;45234;48.148;17.128;2023-06-22T00:49:33;100334.03;;;22.31
24740;BMP280;45234;48.148;17.128;2023-06-22T00:52:01;100328.75;;;22.31
24740;BMP280;45234;48.148;17.128;2023-06-22T00:54:29;100316.31;;;22.26
24740;BMP280;45234;48.148;17.128;2023-06-22T00:56:57;100318.97;;;22.21
24740;BMP280;45234;48.148;17.128;2023-06-22T00:59:25;100316.06;;;22.13
24740;BMP280;45234;48.148;17.128;2023-06-22T01:01:53;100308.69;;;22.15
24740;BMP280;45234;48.148;17.128;2023-06-22T01:04:21;100307.38;;;22.17
24740;BMP280;45234;48.148;17.128;2023-06-22T01:07:02;100301.03;;;22.13
24740;BMP280;45234;48.148;17.128;2023-06-22T01:09:32;100302.13;;;21.87
24740;BMP280;45234;48.148;17.128;2023-06-22T01:12:04;100299.72;;;22.16
24740;BMP280;45234;48.148;17.128;2023-06-22T01:14:36;100305.50;;;22.23
24740;BMP280;45234;48.148;17.128;2023-06-22T01:17:06;100297.06;;;22.21
24740;BMP280;45234;48.148;17.128;2023-06-22T01:22:05;100282.53;;;22.23
24740;BMP280;45234;48.148;17.128;2023-06-22T01:25:09;100278.59;;;22.16
24740;BMP280;45234;48.148;17.128;2023-06-22T01:27:56;100270.16;;;22.09
24740;BMP280;45234;48.148;17.128;2023-06-22T01:30:29;100277.28;;;22.18
24740;BMP280;45234;48.148;17.128;2023-06-22T01:32:58;100274.34;;;22.20
24740;BMP280;45234;48.148;17.128;2023-06-22T01:35:25;100278.88;;;22.19
24740;BMP280;45234;48.148;17.128;2023-06-22T01:37:53;100275.13;;;22.20
24740;BMP280;45234;48.148;17.128;2023-06-22T01:40:20;100281.22;;;22.21
24740;BMP280;45234;48.148;17.128;2023-06-22T01:42:51;100278.56;;;22.21
24740;BMP280;45234;48.148;17.128;2023-06-22T01:45:19;100272.00;;;22.18
24740;BMP280;45234;48.148;17.128;2023-06-22T01:47:46;100266.44;;;22.15
24740;BMP280;45234;48.148;17.128;2023-06-22T01:50:13;100261.72;;;22.12
24740;BMP280;45234;48.148;17.128;2023-06-22T01:52:40;100265.41;;;22.11
24740;BMP280;45234;48.148;17.128;2023-06-22T01:55:08;100262.75;;;22.05
24740;BMP280;45234;48.148;17.128;2023-06-22T01:57:35;100267.00;;;22.01
24740;BMP280;45234;48.148;17.128;2023-06-22T02:00:31;100270.44;;;21.97
24740;BMP280;45234;48.148;17.128;2023-06-22T02:03:23;100274.66;;;21.93
24740;BMP280;45234;48.148;17.128;2023-06-22T02:06:04;100271.22;;;22.02
24740;BMP280;45234;48.148;17.128;2023-06-22T02:08:48;100261.72;;;22.01
24740;BMP280;45234;48.148;17.128;2023-06-22T02:11:19;100258.56;;;21.99
24740;BMP280;45234;48.148;17.128;2023-06-22T02:13:47;100253.28;;;21.99
24740;BMP280;45234;48.148;17.128;2023-06-22T02:16:15;100250.41;;;21.96
24740;BMP280;45234;48.148;17.128;2023-06-22T02:18:48;100259.63;;;21.88
24740;BMP280;45234;48.148;17.128;2023-06-22T02:21:23;100264.91;;;21.88
24740;BMP280;45234;48.148;17.128;2023-06-22T02:23:50;100264.66;;;21.85
24740;BMP280;45234;48.148;17.128;2023-06-22T02:26:18;100268.09;;;21.85
24740;BMP280;45234;48.148;17.128;2023-06-22T02:28:45;100272.56;;;21.85
24740;BMP280;45234;48.148;17.128;2023-06-22T02:31:12;100262.81;;;21.85
24740;BMP280;45234;48.148;17.128;2023-06-22T02:33:39;100259.13;;;21.86
24740;BMP280;45234;48.148;17.128;2023-06-22T02:36:07;100258.31;;;21.86
24740;BMP280;45234;48.148;17.128;2023-06-22T02:38:36;100259.63;;;21.83
24740;BMP280;45234;48.148;17.128;2023-06-22T02:41:03;100261.19;;;21.84
24740;BMP280;45234;48.148;17.128;2023-06-22T02:43:30;100266.47;;;21.84
24740;BMP280;45234;48.148;17.128;2023-06-22T02:45:57;100261.47;;;21.83
24740;BMP280;45234;48.148;17.128;2023-06-22T02:48:24;100257.00;;;21.83
24740;BMP280;45234;48.148;17.128;2023-06-22T02:50:52;100263.81;;;21.84
24740;BMP280;45234;48.148;17.128;2023-06-22T02:53:19;100255.91;;;21.84
24740;BMP280;45234;48.148;17.128;2023-06-22T02:55:46;100253.28;;;21.84
24740;BMP280;45234;48.148;17.128;2023-06-22T02:58:13;100253.81;;;21.81
24740;BMP280;45234;48.148;17.128;2023-06-22T03:00:41;100244.34;;;21.75
24740;BMP280;45234;48.148;17.128;2023-06-22T03:03:07;100260.94;;;21.81
24740;BMP280;45234;48.148;17.128;2023-06-22T03:05:35;100249.09;;;21.78
24740;BMP280;45234;48.148;17.128;2023-06-22T03:08:02;100248.03;;;21.79
24740;BMP280;45234;48.148;17.128;2023-06-22T03:10:32;100245.91;;;21.81
24740;BMP280;45234;48.148;17.128;2023-06-22T03:12:59;100251.19;;;21.81
24740;BMP280;45234;48.148;17.128;2023-06-22T03:15:26;100237.97;;;21.81
24740;BMP280;45234;48.148;17.128;2023-06-22T03:17:56;100249.63;;;21.80
24740;BMP280;45234;48.148;17.128;2023-06-22T03:20:23;100251.19;;;21.81
24740;BMP280;45234;48.148;17.128;2023-06-22T03:22:52;100252.25;;;21.85
24740;BMP280;45234;48.148;17.128;2023-06-22T03:25:19;100259.13;;;21.86
24740;BMP280;45234;48.148;17.128;2023-06-22T03:27:49;100260.16;;;21.90
24740;BMP280;45234;48.148;17.128;2023-06-22T03:30:16;100266.47;;;21.94
24740;BMP280;45234;48.148;17.128;2023-06-22T03:32:45;100271.75;;;21.99
24740;BMP280;45234;48.148;17.128;2023-06-22T03:35:13;100259.06;;;22.01
24740;BMP280;45234;48.148;17.128;2023-06-22T03:37:41;100258.28;;;22.06
24740;BMP280;45234;48.148;17.128;2023-06-22T03:40:08;100251.91;;;22.12
24740;BMP280;45234;48.148;17.128;2023-06-22T03:42:35;100256.16;;;22.18
24740;BMP280;45234;48.148;17.128;2023-06-22T03:45:04;100262.19;;;22.24
24740;BMP280;45234;48.148;17.128;2023-06-22T03:47:34;100273.00;;;22.32
24740;BMP280;45234;48.148;17.128;2023-06-22T03:50:03;100271.13;;;22.33
24740;BMP280;45234;48.148;17.128;2023-06-22T03:52:34;100267.94;;;22.36
24740;BMP280;45234;48.148;17.128;2023-06-22T03:55:01;100273.25;;;22.41
24740;BMP280;45234;48.148;17.128;2023-06-22T03:57:32;100280.84;;;22.48
24740;BMP280;45234;48.148;17.128;2023-06-22T03:59:59;100277.91;;;22.54
24740;BMP280;45234;48.148;17.128;2023-06-22T04:02:26;100274.22;;;22.60
24740;BMP280;45234;48.148;17.128;2023-06-22T04:04:54;100266.28;;;22.65
24740;BMP280;45234;48.148;17.128;2023-06-22T04:07:21;100264.13;;;22.67
24740;BMP280;45234;48.148;17.128;2023-06-22T04:09:47;100264.91;;;22.73
24740;BMP280;45234;48.148;17.128;2023-06-22T04:12:14;100273.09;;;22.76
24740;BMP280;45234;48.148;17.128;2023-06-22T04:14:43;100265.38;;;22.80
24740;BMP280;45234;48.148;17.128;2023-06-22T04:17:09;100273.06;;;22.81
24740;BMP280;45234;48.148;17.128;2023-06-22T04:19:36;100266.22;;;22.80
24740;BMP280;45234;48.148;17.128;2023-06-22T04:22:03;100266.94;;;22.91
24740;BMP280;45234;48.148;17.128;2023-06-22T04:24:30;100271.34;;;23.01
24740;BMP280;45234;48.148;17.128;2023-06-22T04:26:58;100267.84;;;23.10
24740;BMP280;45234;48.148;17.128;2023-06-22T04:29:32;100266.75;;;23.11
24740;BMP280;45234;48.148;17.128;2023-06-22T04:31:59;100277.06;;;23.18
24740;BMP280;45234;48.148;17.128;2023-06-22T04:34:30;100275.13;;;23.28
24740;BMP280;45234;48.148;17.128;2023-06-22T04:36:57;100287.00;;;23.36
24740;BMP280;45234;48.148;17.128;2023-06-22T04:39:24;100291.13;;;23.47
24740;BMP280;45234;48.148;17.128;2023-06-22T04:41:51;100285.75;;;23.57
24740;BMP280;45234;48.148;17.128;2023-06-22T04:44:19;100283.03;;;23.67
24740;BMP280;45234;48.148;17.128;2023-06-22T04:46:53;100276.56;;;23.79
24740;BMP280;45234;48.148;17.128;2023-06-22T04:49:21;100273.34;;;23.82
24740;BMP280;45234;48.148;17.128;2023-06-22T04:51:48;100278.03;;;23.90
24740;BMP280;45234;48.148;17.128;2023-06-22T04:54:18;100276.34;;;23.99
24740;BMP280;45234;48.148;17.128;2023-06-22T04:56:45;100281.25;;;24.10
24740;BMP280;45234;48.148;17.128;2023-06-22T04:59:13;100289.38;;;24.19
24740;BMP280;45234;48.148;17.128;2023-06-22T05:01:41;100285.16;;;24.18
24740;BMP280;45234;48.148;17.128;2023-06-22T05:04:08;100288.72;;;24.27
24740;BMP280;45234;48.148;17.128;2023-06-22T05:06:36;100279.94;;;24.32
24740;BMP280;45234;48.148;17.128;2023-06-22T05:09:06;100278.59;;;24.34
24740;BMP280;45234;48.148;17.128;2023-06-22T05:11:33;100275.38;;;24.37
24740;BMP280;45234;48.148;17.128;2023-06-22T05:14:00;100275.03;;;24.44
24740;BMP280;45234;48.148;17.128;2023-06-22T05:16:27;100291.66;;;24.49
24740;BMP280;45234;48.148;17.128;2023-06-22T05:18:55;100296.56;;;24.61
24740;BMP280;45234;48.148;17.128;2023-06-22T05:21:26;100302.34;;;24.63
24740;BMP280;45234;48.148;17.128;2023-06-22T05:23:54;100294.91;;;24.84
24740;BMP280;45234;48.148;17.128;2023-06-22T05:26:21;100311.16;;;25.15
24740;BMP280;45234;48.148;17.128;2023-06-22T05:28:48;100310.41;;;25.47
24740;BMP280;45234;48.148;17.128;2023-06-22T05:31:16;100303.88;;;25.85
24740;BMP280;45234;48.148;17.128;2023-06-22T05:33:44;100310.06;;;26.71
24740;BMP280;45234;48.148;17.128;2023-06-22T05:36:11;100309.34;;;27.94
24740;BMP280;45234;48.148;17.128;2023-06-22T05:38:39;100300.44;;;29.19
24740;BMP280;45234;48.148;17.128;2023-06-22T05:41:07;100317.34;;;30.19
24740;BMP280;45234;48.148;17.128;2023-06-22T05:43:34;100316.28;;;31.19
24740;BMP280;45234;48.148;17.128;2023-06-22T05:46:03;100333.38;;;32.15
24740;BMP280;45234;48.148;17.128;2023-06-22T05:48:32;100328.13;;;32.18
24740;BMP280;45234;48.148;17.128;2023-06-22T05:50:59;100327.94;;;32.39
24740;BMP280;45234;48.148;17.128;2023-06-22T05:53:26;100330.69;;;33.49
24740;BMP280;45234;48.148;17.128;2023-06-22T05:55:53;100337.97;;;34.21
24740;BMP280;45234;48.148;17.128;2023-06-22T05:58:20;100338.41;;;34.23
24740;BMP280;45234;48.148;17.128;2023-06-22T06:00:47;100333.56;;;34.74
24740;BMP280;45234;48.148;17.128;2023-06-22T06:03:14;100329.88;;;35.35
24740;BMP280;45234;48.148;17.128;2023-06-22T06:05:44;100328.81;;;35.69
24740;BMP280;45234;48.148;17.128;2023-06-22T06:08:12;100336.28;;;36.16
24740;BMP280;45234;48.148;17.128;2023-06-22T06:10:39;100333.50;;;36.46
24740;BMP280;45234;48.148;17.128;2023-06-22T06:13:06;100326.31;;;35.87
24740;BMP280;45234;48.148;17.128;2023-06-22T06:15:34;100337.47;;;35.85
24740;BMP280;45234;48.148;17.128;2023-06-22T06:18:01;100330.19;;;36.23
24740;BMP280;45234;48.148;17.128;2023-06-22T06:20:31;100328.47;;;36.44
24740;BMP280;45234;48.148;17.128;2023-06-22T06:22:59;100335.06;;;36.50
24740;BMP280;45234;48.148;17.128;2023-06-22T06:25:26;100333.00;;;36.77
24740;BMP280;45234;48.148;17.128;2023-06-22T06:27:54;100328.16;;;36.53
24740;BMP280;45234;48.148;17.128;2023-06-22T06:30:21;100325.50;;;36.20
24740;BMP280;45234;48.148;17.128;2023-06-22T06:32:50;100324.56;;;36.01
24740;BMP280;45234;48.148;17.128;2023-06-22T06:35:17;100320.06;;;35.49
24740;BMP280;45234;48.148;17.128;2023-06-22T06:37:48;100324.88;;;35.07
24740;BMP280;45234;48.148;17.128;2023-06-22T06:40:16;100326.25;;;35.50
24740;BMP280;45234;48.148;17.128;2023-06-22T06:42:46;100331.22;;;35.78
24740;BMP280;45234;48.148;17.128;2023-06-22T06:45:18;100338.06;;;36.01
24740;BMP280;45234;48.148;17.128;2023-06-22T06:47:45;100335.91;;;36.58
24740;BMP280;45234;48.148;17.128;2023-06-22T06:50:12;100338.75;;;37.34
24740;BMP280;45234;48.148;17.128;2023-06-22T06:52:39;100338.28;;;37.17
24740;BMP280;45234;48.148;17.128;2023-06-22T06:55:07;100338.53;;;36.98
24740;BMP280;45234;48.148;17.128;2023-06-22T06:57:39;100340.31;;;37.38
24740;BMP280;45234;48.148;17.128;2023-06-22T07:00:07;100335.75;;;37.56
24740;BMP280;45234;48.148;17.128;2023-06-22T07:02:38;100337.63;;;35.10
24740;BMP280;45234;48.148;17.128;2023-06-22T07:05:07;100342.22;;;35.36
24740;BMP280;45234;48.148;17.128;2023-06-22T07:07:34;100332.81;;;35.26
24740;BMP280;45234;48.148;17.128;2023-06-22T07:10:05;100323.63;;;35.87
24740;BMP280;45234;48.148;17.128;2023-06-22T07:12:32;100325.13;;;36.58
24740;BMP280;45234;48.148;17.128;2023-06-22T07:15:04;100322.41;;;36.18
24740;BMP280;45234;48.148;17.128;2023-06-22T07:17:32;100321.16;;;35.75
24740;BMP280;45234;48.148;17.128;2023-06-22T07:19:59;100317.53;;;35.60
24740;BMP280;45234;48.148;17.128;2023-06-22T07:22:29;100323.34;;;36.36
24740;BMP280;45234;48.148;17.128;2023-06-22T07:24:56;100313.63;;;36.72
24740;BMP280;45234;48.148;17.128;2023-06-22T07:27:23;100316.00;;;36.80
24740;BMP280;45234;48.148;17.128;2023-06-22T07:29:51;100311.38;;;36.33
24740;BMP280;45234;48.148;17.128;2023-06-22T07:32:18;100309.97;;;36.10
24740;BMP280;45234;48.148;17.128;2023-06-22T07:34:45;100311.84;;;36.42
24740;BMP280;45234;48.148;17.128;2023-06-22T07:37:12;100313.78;;;36.93
24740;BMP280;45234;48.148;17.128;2023-06-22T07:39:38;100307.53;;;36.82
24740;BMP280;45234;48.148;17.128;2023-06-22T07:42:05;100309.19;;;36.97
24740;BMP280;45234;48.148;17.128;2023-06-22T07:44:32;100294.44;;;36.87
24740;BMP280;45234;48.148;17.128;2023-06-22T07:46:59;100301.25;;;36.67
24740;BMP280;45234;48.148;17.128;2023-06-22T07:49:28;100288.47;;;36.17
24740;BMP280;45234;48.148;17.128;2023-06-22T07:51:56;100296.34;;;35.62
24740;BMP280;45234;48.148;17.128;2023-06-22T07:54:23;100306.72;;;35.30
24740;BMP280;45234;48.148;17.128;2023-06-22T07:56:50;100311.72;;;35.58
24740;BMP280;45234;48.148;17.128;2023-06-22T07:59:16;100298.16;;;35.51
24740;BMP280;45234;48.148;17.128;2023-06-22T08:01:43;100289.28;;;35.54
24740;BMP280;45234;48.148;17.128;2023-06-22T08:04:11;100301.25;;;35.86
24740;BMP280;45234;48.148;17.128;2023-06-22T08:06:38;100301.25;;;35.86
24740;BMP280;45234;48.148;17.128;2023-06-22T08:09:05;100301.94;;;36.13
24740;BMP280;45234;48.148;17.128;2023-06-22T08:11:32;100300.72;;;36.11
24740;BMP280;45234;48.148;17.128;2023-06-22T08:13:59;100298.34;;;35.69
24740;BMP280;45234;48.148;17.128;2023-06-22T08:16:26;100307.28;;;35.76
24740;BMP280;45234;48.148;17.128;2023-06-22T08:18:53;100290.78;;;35.48
24740;BMP280;45234;48.148;17.128;2023-06-22T08:21:53;100290.91;;;35.03
24740;BMP280;45234;48.148;17.128;2023-06-22T08:44:01;100296.53;;;35.17
24740;BMP280;45234;48.148;17.128;2023-06-22T08:51:53;100291.28;;;34.78
24740;BMP280;45234;48.148;17.128;2023-06-22T08:54:34;100293.44;;;34.69
24740;BMP280;45234;48.148;17.128;2023-06-22T08:57:02;100284.78;;;34.79
24740;BMP280;45234;48.148;17.128;2023-06-22T08:59:29;100289.16;;;34.87
24740;BMP280;45234;48.148;17.128;2023-06-22T09:01:56;100287.53;;;34.83
24740;BMP280;45234;48.148;17.128;2023-06-22T09:04:24;100286.19;;;34.96
24740;BMP280;45234;48.148;17.128;2023-06-22T09:06:51;100285.69;;;34.64
24740;BMP280;45234;48.148;17.128;2023-06-22T09:09:22;100281.00;;;34.61
24740;BMP280;45234;48.148;17.128;2023-06-22T09:11:49;100279.00;;;34.55
24740;BMP280;45234;48.148;17.128;2023-06-22T09:14:16;100290.59;;;34.36
24740;BMP280;45234;48.148;17.128;2023-06-22T09:16:43;100278.47;;;34.26
24740;BMP280;45234;48.148;17.128;2023-06-22T09:19:10;100283.78;;;34.42
24740;BMP280;45234;48.148;17.128;2023-06-22T09:21:37;100276.56;;;34.72
24740;BMP280;45234;48.148;17.128;2023-06-22T09:24:05;100277.66;;;34.90
24740;BMP280;45234;48.148;17.128;2023-06-22T09:26:32;100276.69;;;34.79
24740;BMP280;45234;48.148;17.128;2023-06-22T09:28:59;100280.59;;;34.59
24740;BMP280;45234;48.148;17.128;2023-06-22T09:31:26;100273.88;;;34.50
24740;BMP280;45234;48.148;17.128;2023-06-22T09:33:54;100269.00;;;34.32
24740;BMP280;45234;48.148;17.128;2023-06-22T09:36:21;100270.06;;;34.28
24740;BMP280;45234;48.148;17.128;2023-06-22T09:38:50;100270.63;;;33.99
24740;BMP280;45234;48.148;17.128;2023-06-22T09:41:22;100274.75;;;33.73
24740;BMP280;45234;48.148;17.128;2023-06-22T09:43:49;100250.84;;;33.49
24740;BMP280;45234;48.148;17.128;2023-06-22T09:46:17;100263.00;;;33.62
24740;BMP280;45234;48.148;17.128;2023-06-22T09:48:44;100251.91;;;33.64
24740;BMP280;45234;48.148;17.128;2023-06-22T09:51:12;100258.34;;;33.59
24740;BMP280;45234;48.148;17.128;2023-06-22T09:53:42;100253.88;;;33.48
24740;BMP280;45234;48.148;17.128;2023-06-22T09:56:12;100250.66;;;33.58
24740;BMP280;45234;48.148;17.128;2023-06-22T09:58:43;100248.22;;;33.72
24740;BMP280;45234;48.148;17.128;2023-06-22T10:01:12;100252.53;;;33.57
24740;BMP280;45234;48.148;17.128;2023-06-22T10:03:41;100243.38;;;33.42
24740;BMP280;45234;48.148;17.128;2023-06-22T10:06:08;100251.41;;;33.23
24740;BMP280;45234;48.148;17.128;2023-06-22T10:08:36;100238.16;;;33.15
24740;BMP280;45234;48.148;17.128;2023-06-22T10:11:04;100242.16;;;33.21
24740;BMP280;45234;48.148;17.128;2023-06-22T10:13:31;100243.47;;;33.11
24740;BMP280;45234;48.148;17.128;2023-06-22T10:15:58;100240.41;;;33.13
24740;BMP280;45234;48.148;17.128;2023-06-22T10:18:25;100230.81;;;32.80
24740;BMP280;45234;48.148;17.128;2023-06-22T10:20:52;100236.81;;;32.58
24740;BMP280;45234;48.148;17.128;2023-06-22T10:23:22;100233.44;;;32.46
24740;BMP280;45234;48.148;17.128;2023-06-22T10:25:49;100228.63;;;32.39
24740;BMP280;45234;48.148;17.128;2023-06-22T10:28:16;100230.03;;;32.33
24740;BMP280;45234;48.148;17.128;2023-06-22T10:30:43;100226.91;;;32.31
24740;BMP280;45234;48.148;17.128;2023-06-22T10:33:11;100229.91;;;32.14
24740;BMP280;45234;48.148;17.128;2023-06-22T10:35:39;100233.13;;;31.92
24740;BMP280;45234;48.148;17.128;2023-06-22T10:38:06;100235.63;;;31.72
24740;BMP280;45234;48.148;17.128;2023-06-22T10:40:33;100221.91;;;31.62
24740;BMP280;45234;48.148;17.128;2023-06-22T10:43:00;100226.69;;;31.68
24740;BMP280;45234;48.148;17.128;2023-06-22T10:45:27;100222.13;;;31.69
24740;BMP280;45234;48.148;17.128;2023-06-22T10:47:55;100215.88;;;31.65
24740;BMP280;45234;48.148;17.128;2023-06-22T10:50:22;100217.34;;;31.62
24740;BMP280;45234;48.148;17.128;2023-06-22T10:52:51;100218.25;;;31.54
24740;BMP280;45234;48.148;17.128;2023-06-22T10:55:18;100211.13;;;31.34
24740;BMP280;45234;48.148;17.128;2023-06-22T10:57:45;100211.00;;;31.30
24740;BMP280;45234;48.148;17.128;2023-06-22T11:00:14;100210.94;;;31.27
24740;BMP280;45234;48.148;17.128;2023-06-22T11:02:43;100206.69;;;31.26
24740;BMP280;45234;48.148;17.128;2023-06-22T11:05:10;100205.13;;;31.13
24740;BMP280;45234;48.148;17.128;2023-06-22T11:07:41;100200.97;;;31.03
24740;BMP280;45234;48.148;17.128;2023-06-22T11:10:12;100197.06;;;31.01
24740;BMP280;45234;48.148;17.128;2023-06-22T11:12:39;100194.84;;;31.03
24740;BMP280;45234;48.148;17.128;2023-06-22T11:15:06;100200.19;;;31.03
24740;BMP280;45234;48.148;17.128;2023-06-22T11:17:34;100193.06;;;30.95
24740;BMP280;45234;48.148;17.128;2023-06-22T11:20:01;100182.81;;;30.97
24740;BMP280;45234;48.148;17.128;2023-06-22T11:22:31;100186.47;;;31.04
24740;BMP280;45234;48.148;17.128;2023-06-22T11:25:00;100188.25;;;31.12
24740;BMP280;45234;48.148;17.128;2023-06-22T11:27:29;100175.13;;;31.07
24740;BMP280;45234;48.148;17.128;2023-06-22T11:29:56;100173.53;;;31.06
24740;BMP280;45234;48.148;17.128;2023-06-22T11:32:23;100172.34;;;31.16
24740;BMP280;45234;48.148;17.128;2023-06-22T11:34:51;100184.00;;;31.23
24740;BMP280;45234;48.148;17.128;2023-06-22T11:37:18;100176.22;;;31.18
24740;BMP280;45234;48.148;17.128;2023-06-22T11:39:45;100174.09;;;31.24
24740;BMP280;45234;48.148;17.128;2023-06-22T11:42:19;100182.00;;;31.32
24740;BMP280;45234;48.148;17.128;2023-06-22T11:44:46;100174.41;;;31.34
24740;BMP280;45234;48.148;17.128;2023-06-22T11:47:13;100172.97;;;31.37
24740;BMP280;45234;48.148;17.128;2023-06-22T11:49:40;100165.78;;;31.41
24740;BMP280;45234;48.148;17.128;2023-06-22T11:52:07;100157.53;;;31.46
24740;BMP280;45234;48.148;17.128;2023-06-22T11:54:34;100155.31;;;31.48
24740;BMP280;45234;48.148;17.128;2023-06-22T11:57:01;100155.06;;;31.41
24740;BMP280;45234;48.148;17.128;2023-06-22T11:59:28;100156.88;;;31.37
24740;BMP280;45234;48.148;17.128;2023-06-22T12:01:57;100154.09;;;31.33
24740;BMP280;45234;48.148;17.128;2023-06-22T12:04:25;100152.88;;;31.31
24740;BMP280;45234;48.148;17.128;2023-06-22T12:06:52;100150.88;;;31.28
24740;BMP280;45234;48.148;17.128;2023-06-22T12:09:19;100153.91;;;31.26
24740;BMP280;45234;48.148;17.128;2023-06-22T12:11:46;100145.41;;;31.24
24740;BMP280;45234;48.148;17.128;2023-06-22T12:14:12;100145.97;;;31.30
24740;BMP280;45234;48.148;17.128;2023-06-22T12:16:39;100143.72;;;31.32
24740;BMP280;45234;48.148;17.128;2023-06-22T12:19:06;100147.28;;;31.36
24740;BMP280;45234;48.148;17.128;2023-06-22T12:21:33;100145.25;;;31.33
24740;BMP280;45234;48.148;17.128;2023-06-22T12:24:00;100146.41;;;31.32
24740;BMP280;45234;48.148;17.128;2023-06-22T12:26:27;100142.56;;;31.33
24740;BMP280;45234;48.148;17.128;2023-06-22T12:28:53;100126.84;;;31.31
24740;BMP280;45234;48.148;17.128;2023-06-22T12:31:20;100139.91;;;31.33
24740;BMP280;45234;48.148;17.128;2023-06-22T12:33:47;100138.44;;;31.35
24740;BMP280;45234;48.148;17.128;2023-06-22T12:36:15;100140.81;;;31.37
24740;BMP280;45234;48.148;17.128;2023-06-22T12:38:43;100132.94;;;31.44
24740;BMP280;45234;48.148;17.128;2023-06-22T12:41:10;100129.16;;;31.45
24740;BMP280;45234;48.148;17.128;2023-06-22T12:43:37;100135.63;;;31.44
24740;BMP280;45234;48.148;17.128;2023-06-22T12:46:04;100136.09;;;31.34
24740;BMP280;45234;48.148;17.128;2023-06-22T12:48:31;100138.00;;;31.33
24740;BMP280;45234;48.148;17.128;2023-06-22T12:50:58;100128.53;;;31.36
24740;BMP280;45234;48.148;17.128;2023-06-22T12:53:27;100125.59;;;31.41
24740;BMP280;45234;48.148;17.128;2023-06-22T12:55:54;100122.91;;;31.41
24740;BMP280;45234;48.148;17.128;2023-06-22T12:58:21;100123.06;;;31.32
24740;BMP280;45234;48.148;17.128;2023-06-22T13:00:48;100116.16;;;31.31
24740;BMP280;45234;48.148;17.128;2023-06-22T13:03:15;100115.38;;;31.31
24740;BMP280;45234;48.148;17.128;2023-06-22T13:05:42;100116.16;;;31.31
24740;BMP280;45234;48.148;17.128;2023-06-22T13:08:09;100123.16;;;31.36
24740;BMP280;45234;48.148;17.128;2023-06-22T13:10:38;100112.66;;;31.43
24740;BMP280;45234;48.148;17.128;2023-06-22T13:13:05;100110.84;;;31.47
24740;BMP280;45234;48.148;17.128;2023-06-22T13:15:32;100110.84;;;31.47
24740;BMP280;45234;48.148;17.128;2023-06-22T13:18:00;100110.59;;;31.52
24740;BMP280;45234;48.148;17.128;2023-06-22T13:20:28;100107.59;;;31.54
24740;BMP280;45234;48.148;17.128;2023-06-22T13:22:55;100106.13;;;31.56
24740;BMP280;45234;48.148;17.128;2023-06-22T13:25:22;100110.91;;;31.63
24740;BMP280;45234;48.148;17.128;2023-06-22T13:27:53;100110.56;;;31.64
24740;BMP280;45234;48.148;17.128;2023-06-22T13:30:22;100101.41;;;31.65
24740;BMP280;45234;48.148;17.128;2023-06-22T13:32:49;100101.19;;;31.70
24740;BMP280;45234;48.148;17.128;2023-06-22T13:35:16;100099.00;;;31.76
24740;BMP280;45234;48.148;17.128;2023-06-22T13:37:43;100098.84;;;31.84
24740;BMP280;45234;48.148;17.128;2023-06-22T13:40:10;100095.59;;;31.91
24740;BMP280;45234;48.148;17.128;2023-06-22T13:42:37;100094.22;;;31.97
24740;BMP280;45234;48.148;17.128;2023-06-22T13:45:06;100096.75;;;32.06
24740;BMP280;45234;48.148;17.128;2023-06-22T13:47:34;100093.53;;;32.16
24740;BMP280;45234;48.148;17.128;2023-06-22T13:50:01;100087.81;;;32.17
24740;BMP280;45234;48.148;17.128;2023-06-22T13:52:29;100088.59;;;32.18
24740;BMP280;45234;48.148;17.128;2023-06-22T13:54:56;100098.38;;;32.26
24740;BMP280;45234;48.148;17.128;2023-06-22T13:57:24;100087.81;;;32.33
24740;BMP280;45234;48.148;17.128;2023-06-22T13:59:50;100085.31;;;32.40
24740;BMP280;45234;48.148;17.128;2023-06-22T14:02:17;100083.75;;;32.39
24740;BMP280;45234;48.148;17.128;2023-06-22T14:04:44;100084.63;;;32.43
24740;BMP280;45234;48.148;17.128;2023-06-22T14:07:14;100085.47;;;32.47
24740;BMP280;45234;48.148;17.128;2023-06-22T14:09:41;100080.09;;;32.47
24740;BMP280;45234;48.148;17.128;2023-06-22T14:12:08;100078.53;;;32.46
24740;BMP280;45234;48.148;17.128;2023-06-22T14:14:38;100075.94;;;32.50
24740;BMP280;45234;48.148;17.128;2023-06-22T14:17:05;100064.78;;;32.48